Extreme high temperature From: 16-07-2018 05:00 Until: 19:00 warning for: Extreme high temperature Level: Yellow info button
suomi:
Hellevaroitus: Lähivuorokauden aikana on odotettavissa tukalaa hellettä.

svenska:
Varning för värmebölja: Under det närmaste dygnet är den svåra hettan att vänta.

english:
Heat wave warning: Warm weather is expected during the coming 24 hours. 


Thunder radar more information blitzortung!


Löydät sääaseman tiedot myös:

European Weather Network

Finland Weather Exchange

Weather Underground

AWEKAS



Weather Underground säähistoriasivu

Päivittäin yhteenveto Maaliskuu 24, 2017 Yksiköt:  Englantilaiset    Metriset   Molemmat
« Edellinen Päivä
Seuraava Päivä »
Päivittäin Viikoittain Kuukausittain Vuosittain Mukautettu
  Korkea: Matala: Keskiarvo:
Lämpötila: TemperatureC °F -2.9 °F 0.1 °F
Kastepiste: DewpointC °F -8.7 °F -5.1 °F
Kosteus: Humidity % 44 % 68 %
Tuulen nopeus: WindSpeedKMH mph 1.6 mph 4.1 mph
Tuulenpuuska: WindSpeedGustKMH mph - -
Tuuli:- - West
Ilmanpaine: PressurehPa in 1012.8 in -
Sade: 0.0 in    
Historical Graphs
 
 
Taulukkotiedot Maaliskuu 24, 2017
Aika Lämpötila Kastepiste Ilmanpaine Tuuli Tuulen nopeus Tuulenpuuska Kosteus Sademäärä (tunneittain)
TemperatureC °F DewpointC °F PressurehPa in Calm     Humidity % HourlyPrecipMM in
00:00 -0.7 °F -5.7 °F 1014.4 in WNW 3.2 mph 14.5 mph 69 % 0.0 in
00:15 -0.9 °F -5.7 °F 1014.8 in WNW 3.2 mph 16.1 mph 70 % 0.0 in
00:30 -1.0 °F -5.6 °F 1014.8 in WNW 3.2 mph 16.1 mph 71 % 0.0 in
01:00 -1.3 °F -5.7 °F 1015.1 in West 3.2 mph 14.5 mph 72 % 0.0 in
01:15 -1.4 °F -5.6 °F 1015.1 in West 3.2 mph 9.7 mph 73 % 0.0 in
01:30 -1.4 °F -5.7 °F 1015.1 in WNW 4.8 mph 12.9 mph 73 % 0.0 in
02:00 -1.7 °F -5.9 °F 1015.5 in WNW 3.2 mph 11.3 mph 73 % 0.0 in
02:15 -1.7 °F -5.9 °F 1015.5 in West 4.8 mph 14.5 mph 73 % 0.0 in
02:30 -1.9 °F -5.7 °F 1015.5 in West 1.6 mph 6.4 mph 75 % 0.0 in
02:45 -2.1 °F -5.9 °F 1015.5 in West 3.2 mph 11.3 mph 75 % 0.0 in
03:00 -2.1 °F -5.8 °F 1015.8 in WNW 1.6 mph 8.0 mph 76 % 0.0 in
03:15 -2.3 °F -5.8 °F 1015.8 in West 1.6 mph 12.9 mph 77 % 0.0 in
03:30 -2.3 °F -5.8 °F 1015.8 in West 1.6 mph 8.0 mph 77 % 0.0 in
03:45 -2.4 °F -5.7 °F 1015.8 in WNW 1.6 mph 12.9 mph 78 % 0.0 in
04:00 -2.5 °F -5.8 °F 1015.8 in West 3.2 mph 8.0 mph 78 % 0.0 in
04:15 -2.6 °F -5.9 °F 1016.1 in WNW 3.2 mph 9.7 mph 78 % 0.0 in
04:30 -2.7 °F -5.8 °F 1016.1 in West 1.6 mph 11.3 mph 79 % 0.0 in
04:45 -2.8 °F -5.9 °F 1016.1 in WSW 1.6 mph 9.7 mph 79 % 0.0 in
05:00 -2.8 °F -5.7 °F 1016.1 in NW 1.6 mph 11.3 mph 80 % 0.0 in
05:15 -2.9 °F -5.7 °F 1016.1 in West 1.6 mph 9.7 mph 81 % 0.0 in
05:30 -2.9 °F -5.7 °F 1016.1 in West 3.2 mph 11.3 mph 81 % 0.0 in
05:45 -2.8 °F -5.5 °F 1016.5 in WNW 3.2 mph 14.5 mph 82 % 0.0 in
06:00 -2.7 °F -5.4 °F 1016.5 in WNW 3.2 mph 9.7 mph 82 % 0.0 in
06:15 -2.7 °F -5.4 °F 1016.5 in West 3.2 mph 9.7 mph 82 % 0.0 in
06:30 -2.7 °F -5.4 °F 1016.5 in West 1.6 mph 8.0 mph 82 % 0.0 in
06:45 -2.6 °F -5.2 °F 1016.5 in West 3.2 mph 12.9 mph 82 % 0.0 in
07:00 -2.3 °F -4.9 °F 1016.5 in West 3.2 mph 11.3 mph 82 % 0.0 in
07:30 -1.8 °F -4.6 °F 1016.5 in West 1.6 mph 6.4 mph 81 % 0.0 in
08:00 -1.3 °F -4.2 °F 1016.8 in WNW 3.2 mph 11.3 mph 81 % 0.0 in
08:15 -1.2 °F -3.8 °F 1016.8 in WNW 1.6 mph 14.5 mph 82 % 0.0 in
08:30 -0.9 °F -3.8 °F 1017.2 in West 3.2 mph 11.3 mph 81 % 0.0 in
08:45 -0.8 °F -3.6 °F 1017.2 in WNW 3.2 mph 11.3 mph 81 % 0.0 in
09:00 -0.7 °F -3.9 °F 1017.2 in WNW 4.8 mph 16.1 mph 79 % 0.0 in
09:15 -0.5 °F -3.9 °F 1017.2 in NW 4.8 mph 12.9 mph 78 % 0.0 in
09:30 -0.3 °F -4.5 °F 1017.2 in NNW 4.8 mph 14.5 mph 73 % 0.0 in
09:45 -0.1 °F -4.7 °F 1017.2 in NW 8.0 mph 22.5 mph 71 % 0.0 in
10:00 0.3 °F -4.9 °F 1017.5 in NW 3.2 mph 16.1 mph 68 % 0.0 in
10:15 0.3 °F -5.3 °F 1017.5 in NW 3.2 mph 14.5 mph 66 % 0.0 in
10:30 0.6 °F -5.3 °F 1017.5 in NW 6.4 mph 16.1 mph 65 % 0.0 in
10:45 1.0 °F -6.1 °F 1017.5 in NW 3.2 mph 16.1 mph 59 % 0.0 in
11:00 1.2 °F -6.7 °F 1017.5 in NW 4.8 mph 17.7 mph 56 % 0.0 in
11:15 1.2 °F -6.0 °F 1017.8 in NW 6.4 mph 20.9 mph 59 % 0.0 in
11:30 0.7 °F -6.8 °F 1017.8 in North 3.2 mph 8.0 mph 57 % 0.0 in
11:45 1.1 °F -6.9 °F 1017.8 in North 3.2 mph 8.0 mph 55 % 0.0 in
12:00 1.3 °F -7.0 °F 1017.8 in NW 8.0 mph 14.5 mph 54 % 0.0 in
12:15 1.7 °F -6.4 °F 1017.8 in NNW 1.6 mph 8.0 mph 55 % 0.0 in
12:30 2.1 °F -7.5 °F 1017.8 in NW 4.8 mph 17.7 mph 49 % 0.0 in
12:45 2.1 °F -7.5 °F 1018.2 in WNW 6.4 mph 16.1 mph 49 % 0.0 in
13:00 2.3 °F -8.7 °F 1018.2 in NW 8.0 mph 19.3 mph 44 % 0.0 in
13:15 2.6 °F -8.2 °F 1017.8 in NNW 4.8 mph 14.5 mph 45 % 0.0 in
13:30 2.6 °F -7.6 °F 1018.2 in WNW 6.4 mph 19.3 mph 47 % 0.0 in
13:45 2.4 °F -7.5 °F 1017.8 in NW 6.4 mph 17.7 mph 48 % 0.0 in
14:00 2.3 °F -6.8 °F 1018.2 in WNW 4.8 mph 14.5 mph 51 % 0.0 in
14:15 2.3 °F -7.0 °F 1018.2 in WNW 6.4 mph 16.1 mph 50 % 0.0 in
14:30 2.9 °F -7.1 °F 1017.8 in NW 4.8 mph 12.9 mph 48 % 0.0 in
14:45 3.0 °F -6.4 °F 1017.8 in NW 6.4 mph 12.9 mph 50 % 0.0 in
15:00 3.2 °F -6.5 °F 1017.8 in SW 6.4 mph 14.5 mph 49 % 0.0 in
15:15 3.3 °F -6.7 °F 1017.8 in West 4.8 mph 14.5 mph 48 % 0.0 in
15:30 3.2 °F -6.5 °F 1017.8 in West 6.4 mph 16.1 mph 49 % 0.0 in
15:45 3.1 °F -6.6 °F 1017.8 in NW 8.0 mph 20.9 mph 49 % 0.0 in
16:00 3.4 °F -5.8 °F 1017.8 in West 4.8 mph 12.9 mph 51 % 0.0 in
16:15 3.6 °F -5.9 °F 1017.8 in West 3.2 mph 17.7 mph 50 % 0.0 in
16:30 3.2 °F -6.5 °F 1017.5 in WSW 3.2 mph 17.7 mph 49 % 0.0 in
16:45 2.9 °F -5.7 °F 1017.5 in West 4.8 mph 11.3 mph 53 % 0.0 in
17:00 2.7 °F -5.0 °F 1017.5 in WSW 3.2 mph 14.5 mph 57 % 0.0 in
17:15 2.6 °F -5.6 °F 1017.5 in WSW 4.8 mph 14.5 mph 55 % 0.0 in
17:30 2.4 °F -5.7 °F 1017.5 in WSW 3.2 mph 14.5 mph 55 % 0.0 in
17:45 2.1 °F -5.8 °F 1017.2 in West 1.6 mph 6.4 mph 56 % 0.0 in
18:00 1.7 °F -5.5 °F 1017.2 in West 1.6 mph 4.8 mph 59 % 0.0 in
18:15 1.3 °F -5.4 °F 1016.8 in WSW 1.6 mph 6.4 mph 61 % 0.0 in
18:30 1.1 °F -4.9 °F 1016.8 in SW 3.2 mph 8.0 mph 64 % 0.0 in
18:45 0.9 °F -4.7 °F 1016.5 in SW 3.2 mph 9.7 mph 66 % 0.0 in
19:00 0.8 °F -4.3 °F 1016.1 in SSW 3.2 mph 11.3 mph 69 % 0.0 in
19:15 0.7 °F -4.0 °F 1016.1 in SSW 4.8 mph 11.3 mph 71 % 0.0 in
19:30 0.5 °F -4.0 °F 1016.1 in SSW 6.4 mph 14.5 mph 72 % 0.0 in
19:45 0.4 °F -3.9 °F 1015.8 in SSW 6.4 mph 14.5 mph 73 % 0.0 in
20:00 0.3 °F -3.6 °F 1015.8 in SSW 6.4 mph 16.1 mph 75 % 0.0 in
20:15 0.2 °F -3.3 °F 1015.8 in SSW 6.4 mph 16.1 mph 77 % 0.0 in
20:30 0.1 °F -3.3 °F 1015.5 in SSW 4.8 mph 12.9 mph 78 % 0.0 in
20:45 0.0 °F -3.0 °F 1015.1 in SSW 4.8 mph 9.7 mph 80 % 0.0 in
21:00 -0.2 °F -3.0 °F 1015.1 in SSW 3.2 mph 9.7 mph 81 % 0.0 in
21:15 -0.2 °F -2.9 °F 1014.8 in SSW 3.2 mph 8.0 mph 82 % 0.0 in
21:30 -0.2 °F -2.7 °F 1014.4 in SSW 4.8 mph 12.9 mph 83 % 0.0 in
21:45 -0.1 °F -2.6 °F 1014.4 in SSW 4.8 mph 14.5 mph 83 % 0.0 in
22:00 -0.1 °F -2.6 °F 1014.1 in SSW 4.8 mph 9.7 mph 83 % 0.0 in
22:15 0.0 °F -2.7 °F 1014.1 in SSW 4.8 mph 11.3 mph 82 % 0.0 in
22:30 0.1 °F -2.9 °F 1013.8 in SW 4.8 mph 12.9 mph 80 % 0.0 in
22:45 0.3 °F -2.6 °F 1013.4 in SSW 8.0 mph 17.7 mph 81 % 0.0 in
23:00 0.3 °F -2.2 °F 1013.4 in SSW 6.4 mph 17.7 mph 83 % 0.0 in
23:15 0.3 °F -1.9 °F 1013.1 in SSW 6.4 mph 12.9 mph 85 % 0.0 in
23:30 0.1 °F -1.7 °F 1013.1 in SSW 6.4 mph 14.5 mph 88 % 0.0 in
23:45 -0.2 °F -1.5 °F 1012.8 in SSW 3.2 mph 12.9 mph 91 % 0.0 in
Esan sääasema
Terveisin Weather Underground - 2.75 mb

Alkuperäinen skripti  Jim McMurry - jmcmurry@mwt.net Sovitettu myös templatelle  Wim van der Kuil - Leuven-Template.eu

Laitteet joita käytämme:

Sääasema
Davis VP2

Sääasemaohjelma
Cumulus

Sääaseman tietokone
Asus EeePC

Palveluntarjoaja
Suncomet

Davis VP2

Cumulus

Asus EeePC

Suncomet